Time;durP1;ratioP1;P1;durP2;ratioP2;P2;SDS_P1;SDS_P2;PMS_P1;PMS_P2;Temp;Humidity;BMP_temperature;BMP_pressure;BME280_temperature;BME280_humidity;BME280_pressure;Samples;Min_cycle;Max_cycle;Signal;HPM_P1;HPM_P2
2022/12/14 00:02:07;;;;;;;39.15;14.65;;;;;;;-5.89;89.14;95003.16;4999463;28;20046;-94
2022/12/14 00:04:35;;;;;;;44.70;15.20;;;;;;;-5.90;89.12;95007.66;5012582;28;20042;-91
2022/12/14 00:07:01;;;;;;;41.25;14.02;;;;;;;-5.87;89.28;95015.09;4993386;28;20500;-92
2022/12/14 00:09:28;;;;;;;46.90;14.90;;;;;;;-5.87;89.41;95019.63;5010109;28;20054;-91
2022/12/14 00:11:55;;;;;;;26.83;13.23;;;;;;;-5.79;89.33;95016.53;4994095;28;20307;-92
2022/12/14 00:14:21;;;;;;;39.58;14.82;;;;;;;-5.78;89.09;95034.84;5009518;28;20065;-94
2022/12/14 00:16:49;;;;;;;37.58;14.75;;;;;;;-5.73;88.94;95030.66;5002843;28;20060;-94
2022/12/14 00:19:16;;;;;;;43.97;15.00;;;;;;;-5.72;89.20;95019.78;5000246;28;20067;-91
2022/12/14 00:21:44;;;;;;;44.45;14.73;;;;;;;-5.63;88.56;95010.34;5003456;28;20105;-94
2022/12/14 00:24:11;;;;;;;39.72;14.68;;;;;;;-5.63;88.69;95023.59;5008162;28;20045;-92
2022/12/14 00:26:38;;;;;;;36.53;14.68;;;;;;;-5.61;88.51;95018.84;5003852;28;20562;-94
2022/12/14 00:29:04;;;;;;;33.42;14.38;;;;;;;-5.62;88.43;94998.69;5002204;28;20038;-94
2022/12/14 00:31:31;;;;;;;39.60;15.90;;;;;;;-5.59;88.18;94995.50;5002214;28;20074;-92
2022/12/14 00:33:59;;;;;;;33.90;14.68;;;;;;;-5.58;88.36;94997.13;5012546;28;20397;-93
2022/12/14 00:36:26;;;;;;;37.55;15.88;;;;;;;-5.59;88.17;94995.50;5013813;28;20049;-94
2022/12/14 00:38:54;;;;;;;33.33;15.05;;;;;;;-5.61;87.83;94989.66;5014213;28;20050;-93
2022/12/14 00:41:21;;;;;;;33.88;14.25;;;;;;;-5.53;87.65;94989.22;5010179;28;20053;-94
2022/12/14 00:43:51;;;;;;;34.50;15.18;;;;;;;-5.52;87.41;95006.75;5009056;28;20054;-94
2022/12/14 00:46:17;;;;;;;34.63;14.35;;;;;;;-5.45;87.42;95021.66;5010806;28;20137;-92
2022/12/14 00:48:44;;;;;;;33.33;14.15;;;;;;;-5.41;87.29;95025.41;5008083;28;20054;-94
2022/12/14 00:51:13;;;;;;;31.88;14.73;;;;;;;-5.39;86.95;95032.06;5011846;28;20043;-94
2022/12/14 00:53:42;;;;;;;34.20;14.63;;;;;;;-5.51;86.80;95028.75;4997928;28;20086;-93
2022/12/14 00:56:11;;;;;;;35.20;15.10;;;;;;;-5.57;87.58;95011.19;5011828;28;20052;-93
2022/12/14 00:58:37;;;;;;;35.40;15.48;;;;;;;-5.53;87.72;94999.84;5000842;28;20050;-93
2022/12/14 01:01:06;;;;;;;29.25;13.65;;;;;;;-5.49;87.51;94994.03;5002139;28;20049;-94
2022/12/14 01:03:33;;;;;;;34.10;14.77;;;;;;;-5.47;87.36;95002.53;5014355;28;20050;-95
2022/12/14 01:06:00;;;;;;;29.65;14.35;;;;;;;-5.45;87.16;95005.75;5006092;28;20065;-94
2022/12/14 01:08:33;;;;;;;28.65;13.88;;;;;;;-5.46;87.05;95014.75;4997715;28;20061;-96
2022/12/14 01:11:04;;;;;;;29.70;14.00;;;;;;;-5.45;87.44;95016.34;5009732;28;20050;-95
2022/12/14 01:13:31;;;;;;;34.15;14.73;;;;;;;-5.57;87.16;95009.34;5009123;28;20551;-94
2022/12/14 01:16:02;;;;;;;30.73;13.80;;;;;;;-5.52;87.70;95014.69;5010183;28;20050;-96
2022/12/14 01:18:29;;;;;;;29.08;14.65;;;;;;;-5.43;87.38;95009.72;5010880;28;20056;-93
2022/12/14 01:20:55;;;;;;;32.35;14.38;;;;;;;-5.38;86.96;95001.03;5017209;28;20045;-93
2022/12/14 01:23:22;;;;;;;32.28;14.43;;;;;;;-5.38;87.07;95001.81;5001401;28;20046;-96
2022/12/14 01:25:48;;;;;;;32.58;15.05;;;;;;;-5.42;87.17;95015.88;5013580;28;20394;-94
2022/12/14 01:28:15;;;;;;;32.42;14.50;;;;;;;-5.41;87.24;95023.56;4996580;28;20482;-95
2022/12/14 01:30:43;;;;;;;36.25;15.57;;;;;;;-5.40;86.68;95011.91;5007304;28;20490;-94
2022/12/14 01:33:10;;;;;;;29.95;13.45;;;;;;;-5.41;86.90;95012.16;5017266;28;20716;-94
2022/12/14 01:35:36;;;;;;;36.03;14.20;;;;;;;-5.36;86.80;95014.84;5001147;28;20054;-94
2022/12/14 01:38:03;;;;;;;37.47;14.75;;;;;;;-5.34;86.51;95028.66;5012771;28;20713;-92
2022/12/14 01:40:30;;;;;;;31.20;13.77;;;;;;;-5.39;86.32;95031.25;5001283;28;20043;-95
2022/12/14 01:42:56;;;;;;;35.88;14.40;;;;;;;-5.39;86.29;95024.09;5010040;28;20048;-94
2022/12/14 01:45:23;;;;;;;34.55;13.05;;;;;;;-5.40;87.20;95011.09;5015716;28;20053;-95
2022/12/14 01:47:54;;;;;;;30.90;13.68;;;;;;;-5.32;86.91;95008.00;5006513;28;20043;-92
2022/12/14 01:50:26;;;;;;;37.90;15.02;;;;;;;-5.29;86.52;95010.13;5006447;28;20046;-96
2022/12/14 01:52:58;;;;;;;38.77;15.17;;;;;;;-5.33;86.18;95019.66;5001523;28;20057;-96
2022/12/14 01:55:28;;;;;;;40.70;14.13;;;;;;;-5.39;86.36;95023.31;5009135;28;20292;-96
2022/12/14 01:58:00;;;;;;;41.28;15.00;;;;;;;-5.40;86.45;95030.47;5001323;28;20078;-96
2022/12/14 02:00:27;;;;;;;38.00;14.33;;;;;;;-5.40;86.61;95027.81;4999641;28;20062;-96
2022/12/14 02:02:58;;;;;;;43.45;14.85;;;;;;;-5.42;86.85;95018.53;4998523;28;20305;-94
2022/12/14 02:05:28;;;;;;;32.53;13.63;;;;;;;-5.35;86.72;95011.16;5006646;28;20401;-92
2022/12/14 02:07:56;;;;;;;34.33;14.15;;;;;;;-5.36;86.44;94993.63;4992905;28;20045;-96
2022/12/14 02:10:26;;;;;;;37.10;14.13;;;;;;;-5.39;86.87;94988.81;5003389;28;20042;-93
2022/12/14 02:12:59;;;;;;;36.17;14.05;;;;;;;-5.40;86.74;94992.53;4991915;28;20046;-95
2022/12/14 02:15:26;;;;;;;27.95;13.75;;;;;;;-5.37;86.82;94997.34;5013323;28;20041;-92
2022/12/14 02:17:52;;;;;;;40.00;14.38;;;;;;;-5.39;86.95;94994.13;5007917;28;20118;-94
2022/12/14 02:20:23;;;;;;;32.10;13.98;;;;;;;-5.34;87.29;94973.75;5008944;28;20046;-95
2022/12/14 02:23:21;;;;;;;36.08;14.05;;;;;;;-5.35;87.46;94974.00;5007821;28;20057;-88
2022/12/14 02:26:29;;;;;;;39.00;15.50;;;;;;;-5.30;86.71;94966.09;5012001;28;20061;-94
2022/12/14 02:29:27;;;;;;;36.05;16.05;;;;;;;-5.40;87.34;94971.31;5007487;28;20058;-92
2022/12/14 02:32:03;;;;;;;34.50;13.80;;;;;;;-5.40;87.12;94971.31;4995604;28;20047;-91
2022/12/14 02:34:41;;;;;;;41.03;14.60;;;;;;;-5.39;87.26;94978.22;5003921;28;20049;-92
2022/12/14 02:37:15;;;;;;;37.67;15.35;;;;;;;-5.30;87.20;94982.00;5015043;28;20590;-92
2022/12/14 02:39:55;;;;;;;43.72;14.85;;;;;;;-5.28;87.43;94979.91;5006586;28;20054;-94
2022/12/14 02:42:29;;;;;;;38.90;14.05;;;;;;;-5.20;87.42;94970.69;5010006;28;20056;-94
2022/12/14 02:45:01;;;;;;;;;;;;;;;-5.20;87.11;94963.53;4996391;28;20038;-96
2022/12/14 02:47:37;;;;;;;36.45;13.02;;;;;;;-5.20;87.11;94960.06;5003211;28;19925;-89
2022/12/14 02:50:12;;;;;;;38.78;14.88;;;;;;;-5.24;87.10;94949.16;5006979;28;20046;-95
2022/12/14 02:52:46;;;;;;;43.15;14.57;;;;;;;-5.26;87.28;94930.03;5007354;28;20141;-94
2022/12/14 02:55:18;;;;;;;38.15;15.13;;;;;;;-5.26;87.41;94924.75;5006780;28;20057;-92
2022/12/14 02:57:49;;;;;;;38.63;14.98;;;;;;;-5.23;87.30;94926.88;5014290;28;20493;-91
2022/12/14 03:00:19;;;;;;;35.65;13.98;;;;;;;-5.24;86.81;94938.53;4999781;28;20042;-96
2022/12/14 03:02:47;;;;;;;32.33;14.18;;;;;;;-5.26;87.09;94938.00;5014075;28;20146;-93
2022/12/14 03:05:14;;;;;;;36.15;14.90;;;;;;;-5.26;87.15;94946.75;5006898;28;20042;-91
2022/12/14 03:07:46;;;;;;;39.47;14.77;;;;;;;-5.20;87.03;94960.06;5006642;28;20046;-91
2022/12/14 03:10:21;;;;;;;31.23;13.65;;;;;;;-5.17;86.85;94955.03;5000141;28;20043;-90
2022/12/14 03:12:54;;;;;;;37.05;14.02;;;;;;;-5.21;86.75;94932.75;5002747;28;20176;-90
2022/12/14 03:15:24;;;;;;;40.20;14.23;;;;;;;-5.14;86.65;94927.22;5003249;28;20104;-93
2022/12/14 03:17:55;;;;;;;46.42;15.07;;;;;;;-5.11;86.86;94924.84;5014302;28;20045;-89
2022/12/14 03:20:25;;;;;;;41.58;14.45;;;;;;;-5.06;86.49;94924.88;5007189;28;20046;-92
2022/12/14 03:22:57;;;;;;;40.90;14.50;;;;;;;-5.05;86.30;94915.88;4997674;28;20091;-93
2022/12/14 03:25:29;;;;;;;47.28;15.15;;;;;;;-5.07;85.99;94910.00;4999061;28;20043;-93
2022/12/14 03:28:03;;;;;;;35.05;13.73;;;;;;;-5.05;86.02;94913.22;5002956;28;20042;-92
2022/12/14 03:30:35;;;;;;;39.85;14.75;;;;;;;-5.09;86.07;94917.44;5003333;28;20117;-93
2022/12/14 03:33:07;;;;;;;34.65;13.77;;;;;;;-5.16;86.55;94916.84;5002516;28;20050;-95
2022/12/14 03:35:39;;;;;;;30.67;12.82;;;;;;;-5.11;86.92;94921.41;4996645;28;20079;-92
2022/12/14 03:38:13;;;;;;;43.90;15.93;;;;;;;-5.09;86.74;94917.44;5006365;28;20042;-94
2022/12/14 03:40:45;;;;;;;42.38;14.35;;;;;;;-5.08;86.38;94916.38;5003993;28;20137;-91
2022/12/14 03:43:18;;;;;;;41.50;14.55;;;;;;;-5.04;86.40;94916.66;4994924;28;20114;-94
2022/12/14 03:45:55;;;;;;;46.27;15.43;;;;;;;-4.99;86.33;94928.13;4994556;28;20138;-93
2022/12/14 03:48:30;;;;;;;39.28;14.52;;;;;;;-4.95;86.32;94917.00;5001911;28;20069;-95
2022/12/14 03:51:08;;;;;;;34.50;14.40;;;;;;;-5.02;86.33;94909.22;4994936;28;20049;-93
2022/12/14 03:53:40;;;;;;;38.42;14.20;;;;;;;-5.04;86.12;94906.84;5003365;28;20050;-93
2022/12/14 03:56:13;;;;;;;39.08;14.75;;;;;;;-5.00;85.60;94910.59;5005795;28;20054;-94
2022/12/14 03:58:49;;;;;;;38.17;13.43;;;;;;;-5.03;85.59;94903.13;4995721;28;20054;-93
2022/12/14 04:01:23;;;;;;;37.97;14.57;;;;;;;-4.96;85.58;94896.78;5002377;28;20100;-95
2022/12/14 04:03:57;;;;;;;36.05;14.95;;;;;;;-4.96;85.65;94892.28;5002794;28;20042;-90
2022/12/14 04:06:31;;;;;;;32.22;13.35;;;;;;;-5.01;85.74;94903.69;4994409;28;20474;-89
2022/12/14 04:09:05;;;;;;;34.67;13.40;;;;;;;-4.95;85.96;94903.72;4999042;28;20042;-93
2022/12/14 04:20:05;;;;;;;40.17;13.30;;;;;;;-4.86;85.33;94897.66;4993976;28;20502;-92
2022/12/14 04:22:38;;;;;;;35.00;14.18;;;;;;;-4.83;85.54;94897.16;5005442;28;20493;-94
2022/12/14 04:27:58;;;;;;;30.25;13.43;;;;;;;-4.83;84.60;94899.00;5000760;28;20053;-92
2022/12/14 04:30:26;;;;;;;38.63;13.25;;;;;;;-4.76;84.75;94891.59;4998956;28;20054;-93
2022/12/14 04:32:58;;;;;;;35.20;13.32;;;;;;;-4.75;84.61;94879.91;5013213;28;20096;-90
2022/12/14 04:35:29;;;;;;;30.58;13.00;;;;;;;-4.76;84.40;94880.97;5006157;28;20046;-94
2022/12/14 04:38:01;;;;;;;32.28;13.35;;;;;;;-4.76;84.92;94875.66;4986300;28;20049;-91
2022/12/14 04:40:33;;;;;;;32.28;13.48;;;;;;;-4.86;85.42;94880.94;5010602;28;20517;-94
2022/12/14 04:43:04;;;;;;;37.35;13.02;;;;;;;-4.83;85.21;94869.81;5005736;28;20060;-93
2022/12/14 04:45:35;;;;;;;34.50;12.80;;;;;;;-4.80;85.06;94864.00;5010467;28;20049;-93
2022/12/14 04:48:12;;;;;;;36.88;13.88;;;;;;;-4.78;84.79;94864.53;5002289;28;20507;-94
2022/12/14 04:50:44;;;;;;;42.22;12.95;;;;;;;-4.78;84.05;94864.53;5003465;28;20141;-94
2022/12/14 04:53:16;;;;;;;35.20;13.05;;;;;;;-4.84;84.38;94863.69;4999232;28;20046;-94
2022/12/14 04:55:48;;;;;;;37.22;13.25;;;;;;;-4.81;84.56;94851.75;5011639;28;20046;-93
2022/12/14 04:58:20;;;;;;;34.95;13.65;;;;;;;-4.84;84.64;94852.28;5000769;28;20394;-92
2022/12/14 05:00:58;;;;;;;33.45;13.38;;;;;;;-4.91;84.88;94852.50;5008327;28;20525;-94
2022/12/14 05:03:31;;;;;;;42.83;14.02;;;;;;;-4.88;85.06;94845.88;5001692;28;20463;-91
2022/12/14 05:06:08;;;;;;;37.25;13.27;;;;;;;-4.81;85.34;94843.78;4986255;28;20038;-93
2022/12/14 05:09:10;;;;;;;45.00;14.68;;;;;;;-4.89;85.73;94841.63;5002805;28;20057;-91
2022/12/14 05:11:42;;;;;;;50.88;14.02;;;;;;;-4.91;86.30;94835.75;5008969;28;20076;-93
2022/12/14 05:14:12;;;;;;;34.58;14.45;;;;;;;-4.81;86.32;94849.09;5013347;28;20390;-91
2022/12/14 05:16:38;;;;;;;38.13;13.43;;;;;;;-4.77;86.29;94834.25;4996547;28;20074;-93
2022/12/14 05:19:09;;;;;;;33.47;13.25;;;;;;;-4.75;86.39;94840.09;5005319;28;20050;-93
2022/12/14 05:21:48;;;;;;;49.00;14.82;;;;;;;-4.69;86.34;94833.75;5015450;28;20052;-90
2022/12/14 05:24:16;;;;;;;39.05;13.85;;;;;;;-4.68;86.22;94829.25;5005272;28;20042;-93
2022/12/14 05:26:43;;;;;;;42.15;14.77;;;;;;;-4.70;86.01;94828.69;5018253;28;20071;-94
2022/12/14 05:29:09;;;;;;;51.50;14.45;;;;;;;-4.79;86.19;94828.41;5012745;28;20265;-91
2022/12/14 05:31:36;;;;;;;61.42;15.45;;;;;;;-4.74;86.19;94831.09;5022173;28;20405;-93
2022/12/14 05:34:03;;;;;;;60.95;15.60;;;;;;;-4.72;86.51;94826.31;5014489;28;20057;-91
2022/12/14 05:36:31;;;;;;;35.28;14.30;;;;;;;-4.73;86.77;94822.84;5019555;28;20446;-92
2022/12/14 05:38:59;;;;;;;35.88;13.98;;;;;;;-4.73;86.66;94832.69;5012439;28;20269;-89
2022/12/14 05:41:26;;;;;;;39.85;13.93;;;;;;;-4.73;86.63;94828.16;5012828;28;20105;-93
2022/12/14 05:43:52;;;;;;;37.33;14.93;;;;;;;-4.68;86.74;94829.25;5004133;28;20042;-93
2022/12/14 05:46:19;;;;;;;44.45;15.27;;;;;;;-4.63;86.56;94832.72;5010353;28;20038;-91
2022/12/14 05:48:45;;;;;;;45.83;14.93;;;;;;;-4.59;86.80;94828.50;5007794;28;20133;-91
2022/12/14 05:51:13;;;;;;;40.50;14.75;;;;;;;-4.60;86.83;94815.44;5008175;28;20043;-92
2022/12/14 05:53:41;;;;;;;46.38;14.70;;;;;;;-4.59;86.51;94815.22;5008650;28;20046;-90
2022/12/14 05:56:09;;;;;;;37.75;14.13;;;;;;;-4.61;86.17;94806.69;5012358;28;20050;-92
2022/12/14 05:58:37;;;;;;;40.95;14.80;;;;;;;-4.63;85.99;94808.03;5007193;28;20046;-91
2022/12/14 06:01:05;;;;;;;37.47;15.65;;;;;;;-4.59;86.12;94806.44;5001409;28;20038;-90
2022/12/14 06:03:32;;;;;;;48.55;17.40;;;;;;;-4.64;86.10;94804.56;4996950;28;20140;-93
2022/12/14 06:06:02;;;;;;;38.97;15.60;;;;;;;-4.62;86.19;94810.41;4996699;28;20125;-92
2022/12/14 06:08:31;;;;;;;48.95;15.77;;;;;;;-4.67;86.20;94798.97;5004344;28;20046;-94
2022/12/14 06:11:03;;;;;;;39.92;14.65;;;;;;;-4.63;86.61;94797.41;5016290;28;20046;-92
2022/12/14 06:13:30;;;;;;;42.13;15.98;;;;;;;-4.58;86.61;94800.06;5007915;28;20054;-92
2022/12/14 06:16:07;;;;;;;33.05;13.73;;;;;;;-4.51;86.40;94788.13;5016243;28;20057;-93
2022/12/14 06:18:33;;;;;;;39.53;14.13;;;;;;;-4.51;86.04;94772.19;5007537;28;20573;-93
2022/12/14 06:21:00;;;;;;;42.58;14.88;;;;;;;-4.60;86.00;94784.38;5008618;28;20042;-91
2022/12/14 06:23:27;;;;;;;39.95;14.23;;;;;;;-4.58;86.16;94790.25;4998911;28;20042;-96
2022/12/14 06:25:55;;;;;;;47.90;15.52;;;;;;;-4.63;86.42;94782.25;4999619;28;20045;-93
2022/12/14 06:28:23;;;;;;;47.17;16.20;;;;;;;-4.60;86.50;94773.75;5007293;28;20049;-93
2022/12/14 06:30:49;;;;;;;41.08;15.88;;;;;;;-4.64;86.39;94778.00;5008318;28;20046;-94
2022/12/14 06:33:16;;;;;;;49.53;15.55;;;;;;;-4.62;86.71;94772.44;5001438;28;20054;-92
2022/12/14 06:35:43;;;;;;;55.20;15.48;;;;;;;-4.63;86.80;94758.34;4997668;28;20106;-94
2022/12/14 06:38:10;;;;;;;50.80;15.55;;;;;;;-4.60;86.83;94755.16;5002026;28;20038;-95
2022/12/14 06:40:36;;;;;;;50.75;16.08;;;;;;;-4.54;86.82;94751.47;5005773;28;20050;-95
2022/12/14 06:43:03;;;;;;;40.97;16.02;;;;;;;-4.59;86.67;94746.16;5010872;28;20096;-94
2022/12/14 06:45:31;;;;;;;39.53;15.20;;;;;;;-4.59;86.98;94748.00;5000896;28;20050;-95
2022/12/14 06:47:58;;;;;;;39.08;15.40;;;;;;;-4.58;86.97;94750.41;5000625;28;20425;-96
2022/12/14 06:50:27;;;;;;;39.10;14.05;;;;;;;-4.59;87.18;94743.50;5004549;28;20395;-94
2022/12/14 06:52:55;;;;;;;44.15;14.70;;;;;;;-4.57;87.28;94748.53;4996460;28;20053;-95
2022/12/14 06:55:22;;;;;;;35.25;14.57;;;;;;;-4.53;87.01;94747.75;4996244;28;20079;-96
2022/12/14 06:57:51;;;;;;;39.92;15.68;;;;;;;-4.60;86.84;94755.16;5001258;28;20048;-95
2022/12/14 07:00:18;;;;;;;40.65;14.45;;;;;;;-4.57;87.13;94746.66;4998351;28;20046;-96
2022/12/14 07:02:46;;;;;;;45.15;16.58;;;;;;;-4.55;87.48;94744.53;5003316;28;20051;-95
2022/12/14 07:05:13;;;;;;;43.50;15.55;;;;;;;-4.50;87.40;94733.94;4999733;28;20053;-95
2022/12/14 07:07:42;;;;;;;37.38;15.38;;;;;;;-4.46;87.02;94729.69;4999779;28;20673;-94
2022/12/14 07:10:11;;;;;;;42.50;16.45;;;;;;;-4.47;87.39;94740.59;5001811;28;20379;-91
2022/12/14 07:12:38;;;;;;;48.53;16.92;;;;;;;-4.50;87.41;94741.91;5001522;28;20058;-94
2022/12/14 07:15:06;;;;;;;41.97;16.20;;;;;;;-4.51;87.32;94742.97;5007295;28;20038;-93
2022/12/14 07:17:35;;;;;;;46.72;16.17;;;;;;;-4.42;87.60;94747.78;5009762;28;20053;-94
2022/12/14 07:20:05;;;;;;;37.45;15.52;;;;;;;-4.38;87.61;94749.66;5002370;28;20056;-89
2022/12/14 07:22:32;;;;;;;39.95;15.60;;;;;;;-4.33;87.67;94746.16;5009388;28;20053;-93
2022/12/14 07:24:59;;;;;;;48.03;16.77;;;;;;;-4.32;87.90;94734.50;5004150;28;20049;-93
2022/12/14 07:27:25;;;;;;;45.25;16.40;;;;;;;-4.29;88.16;94739.28;5004708;28;20060;-94
2022/12/14 07:29:52;;;;;;;40.55;15.98;;;;;;;-4.24;87.07;94747.25;5001708;28;20061;-90
2022/12/14 07:32:19;;;;;;;40.25;16.10;;;;;;;-4.25;87.09;94745.66;4993223;28;20053;-95
2022/12/14 07:34:46;;;;;;;47.20;17.08;;;;;;;-4.22;86.97;94742.50;4999880;28;20050;-85
2022/12/14 07:37:15;;;;;;;39.58;15.45;;;;;;;-4.20;87.09;94745.66;4999107;28;20049;-90
2022/12/14 07:39:41;;;;;;;61.17;16.83;;;;;;;-4.20;87.33;94730.50;5010218;28;20050;-92
2022/12/14 07:42:08;;;;;;;55.95;17.55;;;;;;;-4.15;87.09;94737.69;4992670;28;20048;-91
2022/12/14 07:44:36;;;;;;;42.58;15.73;;;;;;;-4.18;86.99;94727.59;5000877;28;20076;-89
2022/12/14 07:47:03;;;;;;;40.72;16.30;;;;;;;-4.15;86.99;94721.75;5000571;28;20084;-91
2022/12/14 07:49:29;;;;;;;51.47;16.73;;;;;;;-4.12;87.04;94721.22;4992040;28;20054;-91
2022/12/14 07:51:56;;;;;;;49.20;16.88;;;;;;;-4.12;86.58;94715.91;5006801;28;20406;-84
2022/12/14 07:54:25;;;;;;;62.83;17.80;;;;;;;-4.14;86.60;94715.38;4998387;28;20569;-95
2022/12/14 07:56:52;;;;;;;61.70;17.27;;;;;;;-4.06;86.97;94714.84;4992271;28;20050;-95
2022/12/14 07:59:19;;;;;;;46.67;16.75;;;;;;;-4.01;86.92;94722.81;4994145;28;20053;-89
2022/12/14 08:01:46;;;;;;;44.83;17.77;;;;;;;-3.99;87.00;94720.69;5000589;28;20077;-94
2022/12/14 08:04:14;;;;;;;41.05;16.13;;;;;;;-3.96;86.93;94722.81;5001429;28;20054;-94
2022/12/14 08:06:41;;;;;;;43.53;15.90;;;;;;;-3.97;86.51;94715.09;4996941;28;20046;-88
2022/12/14 08:09:09;;;;;;;51.63;17.70;;;;;;;-4.00;86.88;94713.00;5000013;28;20069;-82
2022/12/14 08:11:40;;;;;;;43.88;16.58;;;;;;;-3.96;87.00;94709.53;4992109;28;20054;-83
2022/12/14 08:14:10;;;;;;;37.13;16.42;;;;;;;-3.89;87.17;94713.78;4997189;28;20496;-79
2022/12/14 08:16:37;;;;;;;46.25;18.15;;;;;;;-3.84;87.43;94711.13;4994671;28;20051;-80
2022/12/14 08:19:04;;;;;;;38.45;17.20;;;;;;;-3.84;86.97;94711.13;4998253;28;20052;-82
2022/12/14 08:21:31;;;;;;;43.83;18.60;;;;;;;-3.81;87.27;94705.25;4991864;28;20050;-77
2022/12/14 08:23:58;;;;;;;36.40;17.38;;;;;;;-3.80;87.56;94704.19;4999652;28;20042;-79
2022/12/14 08:26:25;;;;;;;37.38;17.00;;;;;;;-3.71;87.45;94707.88;4991036;28;20059;-82
2022/12/14 08:28:55;;;;;;;36.13;17.77;;;;;;;-3.65;86.86;94698.84;4991274;28;20057;-79
2022/12/14 08:31:23;;;;;;;35.40;15.65;;;;;;;-3.69;86.67;94690.59;4992268;28;20054;-80
2022/12/14 08:33:50;;;;;;;34.58;16.35;;;;;;;-3.67;86.79;94690.34;5010866;28;20077;-78
2022/12/14 08:36:19;;;;;;;36.28;16.75;;;;;;;-3.70;86.91;94674.94;4996178;28;20050;-78
2022/12/14 08:38:46;;;;;;;41.63;17.20;;;;;;;-3.71;86.17;94668.81;4991630;28;20047;-80
2022/12/14 08:41:14;;;;;;;38.20;17.48;;;;;;;-3.70;86.31;94669.59;4991524;28;20057;-81
2022/12/14 08:43:41;;;;;;;40.15;17.70;;;;;;;-3.81;86.76;94657.38;4999401;28;20414;-79
2022/12/14 08:46:10;;;;;;;38.28;17.42;;;;;;;-3.76;87.20;94654.69;4991316;28;20410;-77
2022/12/14 08:48:37;;;;;;;40.95;17.25;;;;;;;-3.80;87.06;94654.47;4991031;28;20058;-78
2022/12/14 08:51:06;;;;;;;34.40;16.30;;;;;;;-3.87;87.86;94647.81;4992523;28;20046;-87
2022/12/14 08:53:32;;;;;;;36.13;17.05;;;;;;;-3.76;88.36;94652.03;5001415;28;20073;-87
2022/12/14 08:55:59;;;;;;;37.85;17.10;;;;;;;-3.72;88.39;94655.75;5001959;28;20043;-83
2022/12/14 08:58:26;;;;;;;39.40;17.50;;;;;;;-3.78;89.37;94641.69;4995954;28;20046;-89
2022/12/14 09:01:01;;;;;;;35.78;16.80;;;;;;;-3.70;88.84;94651.00;4996415;28;20306;-80
2022/12/14 09:03:29;;;;;;;35.70;16.90;;;;;;;-3.64;88.70;94668.53;4995253;28;20053;-89
2022/12/14 09:05:57;;;;;;;38.05;16.83;;;;;;;-3.61;89.05;94670.63;4995637;28;20038;-82
2022/12/14 09:08:24;;;;;;;38.35;16.35;;;;;;;-3.65;88.95;94672.25;4995702;28;20509;-84
2022/12/14 09:10:50;;;;;;;32.63;15.30;;;;;;;-3.57;89.23;94677.00;5003228;28;20053;-80
2022/12/14 09:13:17;;;;;;;37.97;17.10;;;;;;;-3.58;89.48;94677.28;4994571;28;20066;-80
2022/12/14 09:15:43;;;;;;;37.17;17.85;;;;;;;-3.54;89.73;94676.47;4994089;28;20638;-79
2022/12/14 09:18:10;;;;;;;37.90;17.88;;;;;;;-3.61;90.02;94662.66;5000632;28;20046;-80
2022/12/14 09:20:38;;;;;;;36.40;17.70;;;;;;;-3.50;90.39;94656.25;5001615;28;20054;-79
2022/12/14 09:23:05;;;;;;;41.97;17.98;;;;;;;-3.36;90.06;94655.66;4991126;28;20053;-80
2022/12/14 09:25:32;;;;;;;36.55;17.60;;;;;;;-3.32;89.88;94659.38;4991020;28;20046;-76
2022/12/14 09:27:58;;;;;;;42.22;19.55;;;;;;;-3.24;89.44;94653.47;4991537;28;20144;-78
2022/12/14 09:30:25;;;;;;;41.30;19.60;;;;;;;-3.25;89.48;94649.22;4991704;28;20061;-77
2022/12/14 09:32:51;;;;;;;34.42;16.58;;;;;;;-3.20;89.66;94646.53;4996154;28;20048;-77
2022/12/14 09:35:18;;;;;;;45.22;18.42;;;;;;;-3.09;89.98;94637.44;4990625;28;20047;-79
2022/12/14 09:37:46;;;;;;;43.40;18.92;;;;;;;-2.94;89.95;94628.56;4991708;28;20052;-82
2022/12/14 09:40:15;;;;;;;40.45;17.42;;;;;;;-3.00;89.82;94629.69;4993453;28;20046;-83
2022/12/14 09:43:00;;;;;;;45.58;19.45;;;;;;;-2.91;89.95;94623.50;4991848;28;20490;-78
2022/12/14 09:45:32;;;;;;;35.85;16.73;;;;;;;-2.87;89.83;94623.75;4991781;28;20509;-81
2022/12/14 09:48:07;;;;;;;39.47;18.38;;;;;;;-2.86;88.93;94603.25;4991137;28;20724;-79
2022/12/14 09:50:34;;;;;;;40.90;17.85;;;;;;;-2.86;89.11;94592.59;4992458;28;20494;-79
2022/12/14 09:53:07;;;;;;;43.22;18.70;;;;;;;-2.91;88.88;94580.88;5006477;28;20129;-80
2022/12/14 09:55:37;;;;;;;42.28;18.52;;;;;;;-2.89;88.54;94583.28;4990758;28;20141;-80
2022/12/14 09:58:09;;;;;;;35.28;17.33;;;;;;;-2.90;88.35;94577.16;4992436;28;20057;-81
2022/12/14 10:00:43;;;;;;;40.28;18.80;;;;;;;-3.01;87.85;94580.94;4991726;28;20077;-82
2022/12/14 10:03:25;;;;;;;38.95;16.48;;;;;;;-3.09;88.21;94572.75;4993423;28;20042;-90
2022/12/14 10:06:06;;;;;;;39.13;18.25;;;;;;;-2.98;88.90;94555.63;4992581;28;20569;-87
2022/12/14 10:08:39;;;;;;;36.47;16.73;;;;;;;-2.87;88.83;94565.16;4992755;28;20093;-90
2022/12/14 10:11:11;;;;;;;37.65;18.10;;;;;;;-2.85;88.05;94562.22;4992720;28;20136;-87
2022/12/14 10:13:48;;;;;;;44.05;18.20;;;;;;;-2.74;88.32;94547.75;4995070;28;20086;-89
2022/12/14 10:16:24;;;;;;;38.25;17.23;;;;;;;-2.62;88.26;94546.28;5004626;28;20038;-88
2022/12/14 10:19:02;;;;;;;38.13;17.55;;;;;;;-2.52;88.58;94534.75;5004641;28;20046;-89
2022/12/14 10:21:41;;;;;;;38.30;16.42;;;;;;;-2.29;88.38;94543.09;4996378;28;20065;-91
2022/12/14 10:24:17;;;;;;;42.03;17.45;;;;;;;-2.27;88.09;94540.94;5014909;28;20056;-91
2022/12/14 10:26:47;;;;;;;40.40;18.35;;;;;;;-2.30;87.72;94520.16;5002814;28;20109;-92
2022/12/14 10:29:21;;;;;;;36.85;17.88;;;;;;;-2.37;87.75;94515.97;4997998;28;20593;-92
2022/12/14 10:31:53;;;;;;;36.70;17.10;;;;;;;-2.45;88.02;94511.25;5001664;28;20054;-91
2022/12/14 10:34:24;;;;;;;30.30;14.25;;;;;;;-2.49;88.11;94501.44;4993134;28;20120;-89
2022/12/14 10:36:53;;;;;;;37.70;17.20;;;;;;;-2.50;89.12;94491.84;4991329;28;20053;-85
2022/12/14 10:39:34;;;;;;;40.72;19.10;;;;;;;-2.48;89.25;94492.34;4990859;28;20626;-80
2022/12/14 10:42:07;;;;;;;37.92;18.05;;;;;;;-2.49;88.45;94498.78;4989439;28;20050;-88
2022/12/14 10:44:43;;;;;;;36.25;17.33;;;;;;;-2.48;88.74;94503.81;4995440;28;20058;-88
2022/12/14 10:47:17;;;;;;;37.40;17.45;;;;;;;-2.55;88.97;94503.34;4992993;28;20078;-85
2022/12/14 10:49:53;;;;;;;41.78;18.45;;;;;;;-2.52;89.02;94496.66;4995015;28;20057;-87
2022/12/14 10:52:23;;;;;;;35.58;17.15;;;;;;;-2.62;88.56;94485.00;4998262;28;20053;-93
2022/12/14 10:54:55;;;;;;;38.45;17.80;;;;;;;-2.64;89.12;94481.06;4997061;28;20077;-94
2022/12/14 10:57:26;;;;;;;38.55;17.10;;;;;;;-2.66;89.06;94469.88;5014949;28;20060;-85
2022/12/14 10:59:56;;;;;;;42.58;18.95;;;;;;;-2.69;88.90;94476.56;5000840;28;20053;-89
2022/12/14 11:02:25;;;;;;;36.85;17.67;;;;;;;-2.64;89.56;94470.41;4997363;28;20049;-81
2022/12/14 11:04:55;;;;;;;39.00;18.02;;;;;;;-2.48;89.30;94469.16;4994146;28;20046;-84
2022/12/14 11:07:24;;;;;;;36.28;18.15;;;;;;;-2.42;89.12;94476.03;5003832;28;20050;-92
2022/12/14 11:09:52;;;;;;;37.90;19.02;;;;;;;-2.42;89.06;94473.38;4995730;28;20046;-84
2022/12/14 11:12:24;;;;;;;34.20;17.98;;;;;;;-2.43;89.65;94471.78;5004699;28;20057;-92
2022/12/14 11:14:54;;;;;;;41.22;19.63;;;;;;;-2.42;89.50;94476.03;5001178;28;20088;-90
2022/12/14 11:17:37;;;;;;;40.20;19.38;;;;;;;-2.57;90.15;94468.19;4990845;28;20845;-79
2022/12/14 11:20:14;;;;;;;40.80;19.08;;;;;;;-2.42;91.05;94476.03;4982056;28;20049;-80
2022/12/14 11:22:44;;;;;;;43.50;19.30;;;;;;;-2.29;91.06;94466.59;4989311;28;20117;-78
2022/12/14 11:25:29;;;;;;;40.25;18.73;;;;;;;-2.19;89.86;94468.34;4989495;28;20046;-79
2022/12/14 11:27:55;;;;;;;41.40;18.88;;;;;;;-2.27;89.86;94460.97;5000932;28;20045;-81
2022/12/14 11:30:22;;;;;;;34.15;16.73;;;;;;;-2.19;89.86;94473.69;4993816;28;20758;-80
2022/12/14 11:32:49;;;;;;;42.20;19.33;;;;;;;-2.08;89.93;94469.81;4989986;28;20043;-81
2022/12/14 11:35:17;;;;;;;41.47;19.73;;;;;;;-1.90;90.21;94470.94;4998207;28;20056;-81
2022/12/14 11:37:44;;;;;;;43.10;20.20;;;;;;;-1.54;89.36;94484.63;4998922;28;20052;-87
2022/12/14 11:40:20;;;;;;;39.20;19.58;;;;;;;-1.41;88.36;94494.59;5000933;28;20049;-87
2022/12/14 11:42:50;;;;;;;44.00;18.88;;;;;;;-1.21;88.00;94479.34;5007927;28;20057;-81